Check out our new BloomSky Weather System.

Active alerts


No alerts


Thunder radar  blitzortung!


Rain radar more information rain snow radar


Visit our other weather sites:

Template documentation
and downloads

And another site



Weather Underground History page Text

Daily Summary for October 25, 2017 Units:  English    Metric   Both
« Previous Day
Next Day »
Daily Weekly Monthly Yearly Custom
  High: Low: Average:
Temperature: 76.6 °F 41.9 °F 59 °F
Dew Point: 46.9 °F 35.4 °F 40.9 °F
Humidity: 92 % 24 % 57 %
Wind Speed: 9.0 mph 0.0 mph 0.6 mph
Wind Gust: 10.0 mph - -
Wind:- - West
Pressure: 30.28 in 30.02 in -
Precipitation: 0.00 in    
Historical Graphs
 
 
Tabular Data for October 25, 2017
Time Temperature Dew Point Pressure Wind Wind Speed Wind Gust Humidity Rainfall Rate (Hourly)
00:02 56.8 °F 36.3 °F 30.27 in Calm   4.0 mph 46 % 0.00 in
00:07 56.8 °F 36.9 °F 30.27 in WNW 1.0 mph 3.0 mph 47 % 0.00 in
00:12 56.5 °F 36.5 °F 30.27 in Calm   2.0 mph 47 % 0.00 in
00:17 56.3 °F 36.3 °F 30.27 in Calm   2.0 mph 47 % 0.00 in
00:22 56.1 °F 36.1 °F 30.27 in Calm   2.0 mph 47 % 0.00 in
00:27 56.3 °F 36.3 °F 30.27 in NW 1.0 mph 2.0 mph 47 % 0.00 in
00:32 56.5 °F 36.5 °F 30.27 in NW 1.0 mph 2.0 mph 47 % 0.00 in
00:37 56.5 °F 36.5 °F 30.27 in Calm   2.0 mph 47 % 0.00 in
00:42 55.9 °F 36.5 °F 30.27 in Calm   2.0 mph 48 % 0.00 in
00:47 55.6 °F 36.7 °F 30.27 in Calm   2.0 mph 49 % 0.00 in
00:52 54.9 °F 37.0 °F 30.27 in Calm   1.0 mph 51 % 0.00 in
00:57 54.3 °F 37.6 °F 30.27 in Calm   1.0 mph 53 % 0.00 in
01:02 53.8 °F 37.0 °F 30.27 in Calm   1.0 mph 53 % 0.00 in
01:07 53.1 °F 37.4 °F 30.28 in Calm     55 % 0.00 in
01:12 52.3 °F 36.7 °F 30.27 in Calm     55 % 0.00 in
01:22 51.1 °F 36.9 °F 30.27 in Calm     58 % 0.00 in
01:27 50.5 °F 37.9 °F 30.27 in Calm     62 % 0.00 in
01:32 50.2 °F 38.1 °F 30.27 in Calm     63 % 0.00 in
01:37 49.6 °F 37.2 °F 30.27 in Calm     62 % 0.00 in
01:42 49.3 °F 37.9 °F 30.27 in Calm     65 % 0.00 in
01:47 48.9 °F 38.1 °F 30.27 in Calm     66 % 0.00 in
01:52 48.7 °F 37.9 °F 30.27 in Calm     66 % 0.00 in
01:57 48.4 °F 38.7 °F 30.27 in Calm     69 % 0.00 in
02:02 48.0 °F 38.7 °F 30.27 in Calm     70 % 0.00 in
02:07 47.7 °F 38.7 °F 30.27 in Calm     71 % 0.00 in
02:12 47.5 °F 38.8 °F 30.27 in Calm     72 % 0.00 in
02:17 47.5 °F 39.2 °F 30.27 in Calm     73 % 0.00 in
02:22 47.5 °F 38.8 °F 30.27 in Calm     72 % 0.00 in
02:27 47.5 °F 39.2 °F 30.27 in Calm     73 % 0.00 in
02:32 47.5 °F 39.2 °F 30.27 in Calm     73 % 0.00 in
02:37 47.5 °F 39.2 °F 30.27 in Calm     73 % 0.00 in
02:42 47.5 °F 39.6 °F 30.27 in Calm     74 % 0.00 in
02:47 47.1 °F 39.2 °F 30.27 in Calm     74 % 0.00 in
02:52 46.8 °F 38.8 °F 30.27 in Calm     74 % 0.00 in
02:57 46.4 °F 38.8 °F 30.27 in Calm     75 % 0.00 in
03:02 46.2 °F 39.0 °F 30.27 in Calm     76 % 0.00 in
03:07 46.2 °F 39.0 °F 30.27 in Calm     76 % 0.00 in
03:12 46.0 °F 38.8 °F 30.27 in Calm     76 % 0.00 in
03:17 45.9 °F 38.7 °F 30.26 in Calm     76 % 0.00 in
03:22 45.7 °F 38.8 °F 30.26 in Calm     77 % 0.00 in
03:27 45.9 °F 39.4 °F 30.26 in Calm     78 % 0.00 in
03:32 46.2 °F 39.7 °F 30.26 in Calm     78 % 0.00 in
03:37 46.2 °F 39.7 °F 30.26 in Calm     78 % 0.00 in
03:42 46.0 °F 39.6 °F 30.26 in Calm     78 % 0.00 in
03:47 45.5 °F 38.7 °F 30.26 in Calm     77 % 0.00 in
03:52 45.0 °F 38.5 °F 30.26 in Calm     78 % 0.00 in
03:57 44.4 °F 38.7 °F 30.26 in Calm     80 % 0.00 in
04:02 44.4 °F 39.2 °F 30.26 in Calm     82 % 0.00 in
04:07 44.4 °F 39.2 °F 30.27 in Calm     82 % 0.00 in
04:12 44.8 °F 39.9 °F 30.26 in Calm     83 % 0.00 in
04:17 44.8 °F 39.6 °F 30.26 in Calm     82 % 0.00 in
04:22 44.4 °F 39.2 °F 30.26 in Calm     82 % 0.00 in
04:27 44.4 °F 39.9 °F 30.26 in Calm     84 % 0.00 in
04:32 44.2 °F 39.7 °F 30.26 in Calm     84 % 0.00 in
04:37 44.1 °F 39.6 °F 30.26 in Calm     84 % 0.00 in
04:42 43.9 °F 39.9 °F 30.25 in Calm     86 % 0.00 in
04:47 43.9 °F 39.9 °F 30.25 in Calm     86 % 0.00 in
04:52 43.9 °F 39.9 °F 30.25 in Calm     86 % 0.00 in
04:57 44.1 °F 40.5 °F 30.25 in Calm     87 % 0.00 in
05:02 44.2 °F 40.6 °F 30.25 in Calm     87 % 0.00 in
05:07 44.2 °F 40.3 °F 30.25 in Calm     86 % 0.00 in
05:12 43.9 °F 39.9 °F 30.25 in Calm     86 % 0.00 in
05:17 43.7 °F 39.7 °F 30.25 in Calm     86 % 0.00 in
05:22 43.7 °F 40.1 °F 30.25 in Calm     87 % 0.00 in
05:27 43.9 °F 40.3 °F 30.25 in Calm     87 % 0.00 in
05:32 43.5 °F 39.6 °F 30.25 in Calm     86 % 0.00 in
05:37 43.3 °F 39.4 °F 30.25 in Calm     86 % 0.00 in
05:42 43.2 °F 39.2 °F 30.25 in Calm     86 % 0.00 in
05:47 43.2 °F 39.2 °F 30.25 in Calm     86 % 0.00 in
05:52 43.2 °F 39.2 °F 30.25 in Calm     86 % 0.00 in
05:57 43.0 °F 39.0 °F 30.25 in Calm     86 % 0.00 in
06:02 42.8 °F 38.7 °F 30.25 in Calm     85 % 0.00 in
06:07 42.6 °F 38.7 °F 30.25 in Calm     86 % 0.00 in
06:12 42.4 °F 38.5 °F 30.25 in Calm     86 % 0.00 in
06:17 42.6 °F 39.0 °F 30.25 in Calm     87 % 0.00 in
06:22 43.0 °F 39.4 °F 30.25 in Calm     87 % 0.00 in
06:27 43.0 °F 38.8 °F 30.25 in Calm     85 % 0.00 in
06:32 42.6 °F 38.5 °F 30.25 in Calm     85 % 0.00 in
06:37 42.3 °F 38.1 °F 30.25 in Calm     85 % 0.00 in
06:42 41.9 °F 38.3 °F 30.25 in Calm     87 % 0.00 in
06:47 41.9 °F 38.7 °F 30.25 in Calm     88 % 0.00 in
06:52 42.1 °F 39.0 °F 30.25 in Calm     89 % 0.00 in
06:57 42.3 °F 39.2 °F 30.25 in Calm     89 % 0.00 in
07:02 42.3 °F 39.2 °F 30.25 in Calm     89 % 0.00 in
07:07 42.1 °F 38.8 °F 30.25 in Calm     88 % 0.00 in
07:12 42.1 °F 39.0 °F 30.25 in Calm     89 % 0.00 in
07:17 42.1 °F 39.4 °F 30.25 in Calm     90 % 0.00 in
07:22 42.1 °F 39.4 °F 30.25 in Calm     90 % 0.00 in
07:27 42.1 °F 39.4 °F 30.25 in Calm     90 % 0.00 in
07:32 42.1 °F 39.4 °F 30.25 in Calm     90 % 0.00 in
07:37 42.3 °F 39.7 °F 30.25 in Calm     91 % 0.00 in
07:42 42.3 °F 39.7 °F 30.25 in Calm     91 % 0.00 in
07:47 42.3 °F 39.6 °F 30.25 in Calm     90 % 0.00 in
07:52 42.1 °F 39.6 °F 30.25 in Calm     91 % 0.00 in
07:57 42.4 °F 39.9 °F 30.25 in Calm     91 % 0.00 in
08:02 42.6 °F 39.9 °F 30.25 in Calm     90 % 0.00 in
08:07 42.6 °F 39.9 °F 30.26 in Calm     90 % 0.00 in
08:12 42.6 °F 39.9 °F 30.26 in Calm     90 % 0.00 in
08:17 43.0 °F 40.5 °F 30.26 in Calm     91 % 0.00 in
08:22 43.5 °F 41.4 °F 30.26 in Calm     92 % 0.00 in
08:27 44.8 °F 42.3 °F 30.27 in Calm   1.0 mph 91 % 0.00 in
08:32 46.0 °F 42.4 °F 30.27 in Calm   1.0 mph 87 % 0.00 in
08:37 47.7 °F 41.7 °F 30.27 in Calm   2.0 mph 80 % 0.00 in
08:42 48.9 °F 41.7 °F 30.27 in Calm   2.0 mph 76 % 0.00 in
08:47 50.5 °F 42.6 °F 30.27 in North 1.0 mph 2.0 mph 74 % 0.00 in
08:52 51.6 °F 42.4 °F 30.27 in Calm   2.0 mph 71 % 0.00 in
08:57 52.5 °F 42.3 °F 30.27 in Calm   2.0 mph 68 % 0.00 in
09:02 53.2 °F 41.4 °F 30.27 in Calm   3.0 mph 64 % 0.00 in
09:07 54.3 °F 42.4 °F 30.27 in Calm   3.0 mph 64 % 0.00 in
09:12 55.6 °F 43.2 °F 30.27 in WSW 1.0 mph 3.0 mph 63 % 0.00 in
09:17 56.1 °F 43.3 °F 30.27 in Calm   3.0 mph 62 % 0.00 in
09:22 56.8 °F 42.6 °F 30.27 in NW 1.0 mph 2.0 mph 59 % 0.00 in
09:27 57.4 °F 42.3 °F 30.27 in Calm   3.0 mph 57 % 0.00 in
09:32 57.7 °F 42.6 °F 30.27 in Calm   3.0 mph 57 % 0.00 in
09:37 58.8 °F 43.2 °F 30.27 in West 1.0 mph 3.0 mph 56 % 0.00 in
09:42 60.1 °F 43.0 °F 30.27 in NW 1.0 mph 2.0 mph 53 % 0.00 in
09:47 60.4 °F 44.6 °F 30.26 in Calm   2.0 mph 56 % 0.00 in
09:52 61.0 °F 43.2 °F 30.26 in Calm   2.0 mph 52 % 0.00 in
09:57 61.9 °F 44.6 °F 30.26 in Calm   3.0 mph 53 % 0.00 in
10:02 63.1 °F 44.2 °F 30.26 in WNW 1.0 mph 3.0 mph 50 % 0.00 in
10:07 63.0 °F 43.0 °F 30.25 in NW 1.0 mph 3.0 mph 48 % 0.00 in
10:12 63.0 °F 41.4 °F 30.25 in NW 1.0 mph 2.0 mph 45 % 0.00 in
10:17 63.0 °F 43.0 °F 30.25 in WNW 1.0 mph 2.0 mph 48 % 0.00 in
10:22 63.9 °F 42.6 °F 30.25 in Calm   2.0 mph 46 % 0.00 in
10:27 64.2 °F 42.4 °F 30.25 in Calm   4.0 mph 45 % 0.00 in
10:32 64.9 °F 42.4 °F 30.25 in West 1.0 mph 4.0 mph 44 % 0.00 in
10:37 65.7 °F 41.4 °F 30.25 in Calm   4.0 mph 41 % 0.00 in
10:42 65.7 °F 43.2 °F 30.25 in NW 2.0 mph 3.0 mph 44 % 0.00 in
10:47 65.8 °F 42.1 °F 30.24 in West 1.0 mph 3.0 mph 42 % 0.00 in
10:52 66.7 °F 42.3 °F 30.24 in NNE 1.0 mph 3.0 mph 41 % 0.00 in
10:57 68.2 °F 44.2 °F 30.24 in Calm   3.0 mph 42 % 0.00 in
11:02 68.5 °F 43.3 °F 30.24 in Calm   4.0 mph 40 % 0.00 in
11:12 70.5 °F 43.7 °F 30.24 in SW 1.0 mph 4.0 mph 38 % 0.00 in
11:17 71.4 °F 43.2 °F 30.24 in Calm   3.0 mph 36 % 0.00 in
11:22 72.3 °F 43.2 °F 30.24 in SSW 1.0 mph 3.0 mph 35 % 0.00 in
11:27 72.9 °F 44.4 °F 30.23 in Calm   3.0 mph 36 % 0.00 in
11:32 73.2 °F 41.5 °F 30.23 in Calm   2.0 mph 32 % 0.00 in
11:37 73.0 °F 38.8 °F 30.23 in North 5.0 mph 5.0 mph 29 % 0.00 in
11:42 71.6 °F 38.5 °F 30.23 in NNW 2.0 mph 7.0 mph 30 % 0.00 in
11:47 71.1 °F 39.7 °F 30.23 in NNE 1.0 mph 7.0 mph 32 % 0.00 in
11:52 71.1 °F 38.8 °F 30.22 in NW 2.0 mph 7.0 mph 31 % 0.00 in
11:57 71.1 °F 38.1 °F 30.22 in West 2.0 mph 6.0 mph 30 % 0.00 in
12:02 70.9 °F 36.1 °F 30.22 in West 2.0 mph 7.0 mph 28 % 0.00 in
12:07 71.1 °F 38.8 °F 30.22 in Calm   7.0 mph 31 % 0.00 in
12:12 71.2 °F 37.4 °F 30.22 in WNW 3.0 mph 7.0 mph 29 % 0.00 in
12:17 71.2 °F 39.9 °F 30.21 in Calm   7.0 mph 32 % 0.00 in
12:22 72.3 °F 39.9 °F 30.21 in WNW 5.0 mph 6.0 mph 31 % 0.00 in
12:27 72.0 °F 37.9 °F 30.21 in SW 1.0 mph 7.0 mph 29 % 0.00 in
12:28 72.1 °F 39.0 °F 30.21 in Calm   7.0 mph 30 % 0.00 in
12:33 72.3 °F 39.9 °F 30.20 in Calm   7.0 mph 31 % 0.00 in
12:38 73.0 °F 38.8 °F 30.20 in West 3.0 mph 7.0 mph 29 % 0.00 in
12:43 72.1 °F 39.9 °F 30.19 in WNW 2.0 mph 8.0 mph 31 % 0.00 in
12:48 72.5 °F 39.4 °F 30.19 in West 3.0 mph 8.0 mph 30 % 0.00 in
12:53 72.5 °F 42.6 °F 30.19 in Calm   8.0 mph 34 % 0.00 in
12:58 73.4 °F 42.6 °F 30.18 in North 1.0 mph 8.0 mph 33 % 0.00 in
13:03 73.2 °F 43.2 °F 30.18 in WSW 1.0 mph 8.0 mph 34 % 0.00 in
13:08 73.8 °F 40.5 °F 30.17 in SE 2.0 mph 6.0 mph 30 % 0.00 in
13:13 74.1 °F 39.9 °F 30.17 in SE 1.0 mph 6.0 mph 29 % 0.00 in
13:18 73.9 °F 39.7 °F 30.17 in North 2.0 mph 8.0 mph 29 % 0.00 in
13:23 73.8 °F 40.5 °F 30.16 in Calm   8.0 mph 30 % 0.00 in
13:28 74.3 °F 39.0 °F 30.16 in NNW 2.0 mph 8.0 mph 28 % 0.00 in
13:33 74.1 °F 37.9 °F 30.16 in NW 3.0 mph 8.0 mph 27 % 0.00 in
13:38 73.2 °F 39.0 °F 30.15 in NW 2.0 mph 8.0 mph 29 % 0.00 in
13:43 73.8 °F 40.5 °F 30.15 in West 2.0 mph 8.0 mph 30 % 0.00 in
13:48 74.5 °F 40.1 °F 30.14 in Calm   8.0 mph 29 % 0.00 in
13:53 74.8 °F 37.6 °F 30.14 in WSW 3.0 mph 6.0 mph 26 % 0.00 in
13:58 74.3 °F 37.2 °F 30.14 in Calm   7.0 mph 26 % 0.00 in
14:03 74.3 °F 39.0 °F 30.13 in WNW 1.0 mph 7.0 mph 28 % 0.00 in
14:08 73.8 °F 36.7 °F 30.13 in NNW 2.0 mph 10.0 mph 26 % 0.00 in
14:13 73.9 °F 37.8 °F 30.13 in South 1.0 mph 10.0 mph 27 % 0.00 in
14:18 74.8 °F 37.6 °F 30.12 in West 2.0 mph 10.0 mph 26 % 0.00 in
14:23 74.7 °F 35.4 °F 30.12 in NW 9.0 mph 9.0 mph 24 % 0.00 in
14:28 74.5 °F 39.2 °F 30.12 in Calm   9.0 mph 28 % 0.00 in
14:33 75.4 °F 40.1 °F 30.12 in WSW 1.0 mph 9.0 mph 28 % 0.00 in
14:38 76.5 °F 39.0 °F 30.11 in WNW 1.0 mph 9.0 mph 26 % 0.00 in
14:43 75.9 °F 37.6 °F 30.11 in NW 3.0 mph 7.0 mph 25 % 0.00 in
14:48 75.0 °F 38.8 °F 30.11 in WNW 2.0 mph 7.0 mph 27 % 0.00 in
14:53 75.0 °F 39.7 °F 30.11 in WNW 2.0 mph 7.0 mph 28 % 0.00 in
14:58 74.8 °F 37.6 °F 30.11 in WNW 4.0 mph 7.0 mph 26 % 0.00 in
15:03 75.2 °F 37.9 °F 30.11 in WNW 3.0 mph 9.0 mph 26 % 0.00 in
15:08 75.4 °F 38.1 °F 30.11 in SW 1.0 mph 9.0 mph 26 % 0.00 in
15:13 75.9 °F 38.7 °F 30.10 in SSE 1.0 mph 9.0 mph 26 % 0.00 in
15:18 76.5 °F 39.0 °F 30.10 in NW 4.0 mph 7.0 mph 26 % 0.00 in
15:23 75.7 °F 38.5 °F 30.10 in NNW 4.0 mph 9.0 mph 26 % 0.00 in
15:28 75.6 °F 40.1 °F 30.10 in Calm   9.0 mph 28 % 0.00 in
15:33 76.5 °F 39.9 °F 30.10 in NW 1.0 mph 9.0 mph 27 % 0.00 in
15:38 76.6 °F 39.2 °F 30.10 in North 3.0 mph 6.0 mph 26 % 0.00 in
15:43 76.1 °F 40.6 °F 30.10 in SSE 1.0 mph 7.0 mph 28 % 0.00 in
15:48 76.3 °F 39.9 °F 30.09 in WNW 1.0 mph 7.0 mph 27 % 0.00 in
15:53 76.5 °F 39.9 °F 30.09 in WNW 2.0 mph 7.0 mph 27 % 0.00 in
15:58 76.5 °F 39.0 °F 30.09 in WNW 2.0 mph 7.0 mph 26 % 0.00 in
16:03 76.3 °F 40.8 °F 30.09 in WNW 4.0 mph 6.0 mph 28 % 0.00 in
16:08 75.7 °F 40.3 °F 30.09 in SSE 1.0 mph 6.0 mph 28 % 0.00 in
16:13 75.7 °F 41.2 °F 30.09 in WSW 2.0 mph 7.0 mph 29 % 0.00 in
16:18 75.7 °F 42.1 °F 30.09 in Calm   7.0 mph 30 % 0.00 in
16:23 76.3 °F 42.6 °F 30.08 in SW 1.0 mph 7.0 mph 30 % 0.00 in
16:28 76.3 °F 39.9 °F 30.08 in NNW 6.0 mph 6.0 mph 27 % 0.00 in
16:33 75.9 °F 39.6 °F 30.08 in WNW 3.0 mph 6.0 mph 27 % 0.00 in
16:38 76.3 °F 39.9 °F 30.08 in West 1.0 mph 6.0 mph 27 % 0.00 in
16:43 75.9 °F 38.7 °F 30.08 in NW 2.0 mph 6.0 mph 26 % 0.00 in
16:48 75.6 °F 37.2 °F 30.08 in NNW 4.0 mph 5.0 mph 25 % 0.00 in
16:53 75.6 °F 37.2 °F 30.08 in NW 4.0 mph 6.0 mph 25 % 0.00 in
16:58 75.4 °F 37.0 °F 30.08 in NW 3.0 mph 9.0 mph 25 % 0.00 in
17:03 75.4 °F 38.1 °F 30.07 in Calm   9.0 mph 26 % 0.00 in
17:08 75.4 °F 38.1 °F 30.07 in North 5.0 mph 9.0 mph 26 % 0.00 in
17:13 75.0 °F 37.8 °F 30.07 in Calm   8.0 mph 26 % 0.00 in
17:18 75.0 °F 37.8 °F 30.07 in NW 1.0 mph 6.0 mph 26 % 0.00 in
17:23 74.8 °F 38.7 °F 30.07 in WNW 2.0 mph 6.0 mph 27 % 0.00 in
17:28 74.8 °F 38.7 °F 30.06 in West 1.0 mph 6.0 mph 27 % 0.00 in
17:33 74.7 °F 38.5 °F 30.06 in West 1.0 mph 7.0 mph 27 % 0.00 in
17:38 74.5 °F 37.4 °F 30.06 in North 1.0 mph 7.0 mph 26 % 0.00 in
17:43 74.1 °F 37.9 °F 30.06 in Calm   7.0 mph 27 % 0.00 in
17:48 73.9 °F 37.8 °F 30.06 in WNW 3.0 mph 6.0 mph 27 % 0.00 in
17:53 73.8 °F 38.7 °F 30.06 in West 1.0 mph 4.0 mph 28 % 0.00 in
17:58 73.8 °F 38.7 °F 30.06 in West 1.0 mph 4.0 mph 28 % 0.00 in
18:03 73.2 °F 39.0 °F 30.06 in Calm   3.0 mph 29 % 0.00 in
18:08 72.9 °F 39.6 °F 30.06 in South 1.0 mph 3.0 mph 30 % 0.00 in
18:13 72.1 °F 39.0 °F 30.06 in Calm   2.0 mph 30 % 0.00 in
18:18 71.8 °F 39.6 °F 30.06 in Calm   2.0 mph 31 % 0.00 in
18:23 71.1 °F 39.7 °F 30.06 in Calm   2.0 mph 32 % 0.00 in
18:28 70.5 °F 40.1 °F 30.06 in Calm   2.0 mph 33 % 0.00 in
18:33 70.0 °F 41.7 °F 30.05 in Calm   1.0 mph 36 % 0.00 in
18:38 69.1 °F 41.7 °F 30.05 in Calm   1.0 mph 37 % 0.00 in
18:43 68.4 °F 41.7 °F 30.05 in Calm   1.0 mph 38 % 0.00 in
18:48 67.5 °F 43.5 °F 30.05 in Calm   1.0 mph 42 % 0.00 in
18:53 66.7 °F 43.5 °F 30.05 in Calm     43 % 0.00 in
18:58 66.2 °F 44.2 °F 30.05 in Calm   1.0 mph 45 % 0.00 in
19:03 65.7 °F 44.2 °F 30.05 in Calm   1.0 mph 46 % 0.00 in
19:08 65.1 °F 43.9 °F 30.05 in Calm   1.0 mph 46 % 0.00 in
19:13 64.6 °F 42.8 °F 30.05 in Calm   1.0 mph 45 % 0.00 in
19:18 64.0 °F 42.3 °F 30.05 in Calm   1.0 mph 45 % 0.00 in
19:23 63.3 °F 42.8 °F 30.05 in Calm   1.0 mph 47 % 0.00 in
19:28 62.8 °F 43.3 °F 30.05 in Calm     49 % 0.00 in
19:33 62.2 °F 43.3 °F 30.05 in Calm     50 % 0.00 in
19:38 61.5 °F 43.7 °F 30.05 in Calm     52 % 0.00 in
19:43 61.3 °F 45.0 °F 30.05 in Calm     55 % 0.00 in
19:48 61.3 °F 45.0 °F 30.05 in Calm     55 % 0.00 in
19:53 61.2 °F 44.8 °F 30.05 in Calm   1.0 mph 55 % 0.00 in
19:58 61.0 °F 44.2 °F 30.05 in Calm   1.0 mph 54 % 0.00 in
20:03 60.4 °F 44.2 °F 30.05 in Calm   1.0 mph 55 % 0.00 in
20:08 59.9 °F 45.1 °F 30.05 in Calm   1.0 mph 58 % 0.00 in
20:13 59.7 °F 45.3 °F 30.05 in Calm     59 % 0.00 in
20:18 59.5 °F 44.2 °F 30.05 in Calm     57 % 0.00 in
20:23 59.4 °F 45.5 °F 30.05 in Calm     60 % 0.00 in
20:28 58.8 °F 45.3 °F 30.05 in Calm     61 % 0.00 in
20:33 58.6 °F 45.7 °F 30.05 in Calm     62 % 0.00 in
20:38 58.3 °F 45.3 °F 30.05 in Calm     62 % 0.00 in
20:43 57.9 °F 46.2 °F 30.05 in Calm     65 % 0.00 in
20:48 57.7 °F 45.7 °F 30.05 in Calm     64 % 0.00 in
20:53 57.2 °F 45.1 °F 30.04 in Calm     64 % 0.00 in
20:58 56.8 °F 45.7 °F 30.05 in Calm     66 % 0.00 in
21:03 56.7 °F 45.9 °F 30.05 in Calm     67 % 0.00 in
21:08 56.5 °F 45.7 °F 30.05 in Calm     67 % 0.00 in
21:13 56.3 °F 45.9 °F 30.05 in Calm     68 % 0.00 in
21:23 55.9 °F 46.2 °F 30.05 in Calm     70 % 0.00 in
21:29 55.8 °F 46.0 °F 30.05 in Calm     70 % 0.00 in
21:34 55.6 °F 46.0 °F 30.04 in Calm     70 % 0.00 in
21:39 55.4 °F 46.2 °F 30.05 in Calm     71 % 0.00 in
21:44 55.2 °F 46.4 °F 30.05 in Calm     72 % 0.00 in
21:48 55.2 °F 46.8 °F 30.04 in Calm     73 % 0.00 in
21:53 55.0 °F 46.2 °F 30.04 in Calm     72 % 0.00 in
21:58 54.7 °F 46.2 °F 30.04 in Calm     73 % 0.00 in
22:04 54.3 °F 46.6 °F 30.04 in Calm     75 % 0.00 in
22:09 54.7 °F 46.9 °F 30.04 in Calm     75 % 0.00 in
22:14 54.7 °F 46.2 °F 30.04 in Calm     73 % 0.00 in
22:19 54.5 °F 46.0 °F 30.04 in Calm     73 % 0.00 in
22:24 54.3 °F 46.2 °F 30.04 in Calm     74 % 0.00 in
22:29 54.7 °F 46.6 °F 30.04 in Calm     74 % 0.00 in
22:34 54.7 °F 45.9 °F 30.04 in Calm     72 % 0.00 in
22:39 54.7 °F 46.6 °F 30.03 in Calm     74 % 0.00 in
22:44 54.3 °F 46.2 °F 30.04 in Calm     74 % 0.00 in
22:49 54.7 °F 46.2 °F 30.03 in Calm   1.0 mph 73 % 0.00 in
22:54 54.5 °F 45.7 °F 30.03 in Calm   1.0 mph 72 % 0.00 in
22:59 54.1 °F 46.0 °F 30.03 in Calm   1.0 mph 74 % 0.00 in
23:04 54.0 °F 45.9 °F 30.03 in Calm     74 % 0.00 in
23:09 53.8 °F 46.0 °F 30.03 in Calm     75 % 0.00 in
23:14 54.0 °F 46.6 °F 30.03 in Calm     76 % 0.00 in
23:19 54.1 °F 46.0 °F 30.03 in Calm     74 % 0.00 in
23:24 54.1 °F 46.0 °F 30.02 in Calm     74 % 0.00 in
23:29 54.1 °F 45.7 °F 30.02 in Calm   1.0 mph 73 % 0.00 in
23:33 54.3 °F 46.2 °F 30.02 in Calm   1.0 mph 74 % 0.00 in
23:38 54.7 °F 46.6 °F 30.02 in Calm   1.0 mph 74 % 0.00 in
23:43 54.7 °F 46.2 °F 30.02 in Calm     73 % 0.00 in
23:48 54.5 °F 46.4 °F 30.02 in Calm     74 % 0.00 in
23:54 54.7 °F 46.2 °F 30.02 in Calm     73 % 0.00 in
23:59 55.2 °F 46.0 °F 30.02 in Calm   1.0 mph 71 % 0.00 in
Spring, Texas: Villages of Bridgestone
Compliments of Weather Underground - 2.75 mb

Script developed by  Jim McMurry - jmcmurry@mwt.net Adapted for the template by  Wim van der Kuil - Leuven-Template.eu

You find our weather info also at:

UK Metoffice

WeatherCloud

Weather Underground

Mid-South Weather Network

AWEKAS

Citizen Weather Observer Program (CWOP)

HAMweather, WeatherForYou, PWS Weather

Equipment we use:

Weather-station
Davis Vantage Vue

Weather-program
Meteohub

Weather-server
Debian 7.9 x86 (Guest)

Provider
DreamHost

Davis Vantage Vue

Meteohub

Debian 7.9 x86 (Guest)

DreamHost